sensor_id;sensor_type;location;lat;lon;timestamp;temperature;humidity
18888;DHT22;9576;47.792;9.628;2024-01-30T00:02:21;0.00;99.90
18888;DHT22;9576;47.792;9.628;2024-01-30T00:05:22;-0.20;99.90
18888;DHT22;9576;47.792;9.628;2024-01-30T00:08:24;-0.20;99.90
18888;DHT22;9576;47.792;9.628;2024-01-30T00:11:27;-0.20;99.90
18888;DHT22;9576;47.792;9.628;2024-01-30T00:14:29;-0.20;99.90
18888;DHT22;9576;47.792;9.628;2024-01-30T00:17:31;-0.20;99.90
18888;DHT22;9576;47.792;9.628;2024-01-30T00:20:32;-0.20;99.90
18888;DHT22;9576;47.792;9.628;2024-01-30T00:23:34;-0.10;99.90
18888;DHT22;9576;47.792;9.628;2024-01-30T00:26:37;-0.10;99.90
18888;DHT22;9576;47.792;9.628;2024-01-30T00:29:39;-0.10;99.90
18888;DHT22;9576;47.792;9.628;2024-01-30T00:32:40;-0.10;99.90
18888;DHT22;9576;47.792;9.628;2024-01-30T00:35:42;-0.10;99.90
18888;DHT22;9576;47.792;9.628;2024-01-30T00:38:44;0.00;99.90
18888;DHT22;9576;47.792;9.628;2024-01-30T00:41:47;-0.20;99.90
18888;DHT22;9576;47.792;9.628;2024-01-30T00:44:49;-0.10;99.90
18888;DHT22;9576;47.792;9.628;2024-01-30T00:47:50;-0.10;99.90
18888;DHT22;9576;47.792;9.628;2024-01-30T00:50:52;-0.20;99.90
18888;DHT22;9576;47.792;9.628;2024-01-30T00:53:54;-0.30;99.90
18888;DHT22;9576;47.792;9.628;2024-01-30T00:56:57;-0.30;99.90
18888;DHT22;9576;47.792;9.628;2024-01-30T00:59:58;-0.30;99.90
18888;DHT22;9576;47.792;9.628;2024-01-30T01:03:00;-0.40;99.90
18888;DHT22;9576;47.792;9.628;2024-01-30T01:06:02;-0.50;99.90
18888;DHT22;9576;47.792;9.628;2024-01-30T01:09:04;-0.60;99.90
18888;DHT22;9576;47.792;9.628;2024-01-30T01:12:07;-0.50;99.90
18888;DHT22;9576;47.792;9.628;2024-01-30T01:15:09;-0.40;99.90
18888;DHT22;9576;47.792;9.628;2024-01-30T01:18:10;-0.20;99.90
18888;DHT22;9576;47.792;9.628;2024-01-30T01:21:12;-0.20;99.90
18888;DHT22;9576;47.792;9.628;2024-01-30T01:24:14;-0.10;99.90
18888;DHT22;9576;47.792;9.628;2024-01-30T01:27:17;-0.20;99.90
18888;DHT22;9576;47.792;9.628;2024-01-30T01:30:18;-0.30;99.90
18888;DHT22;9576;47.792;9.628;2024-01-30T01:33:22;-0.40;99.90
18888;DHT22;9576;47.792;9.628;2024-01-30T01:36:23;-0.30;99.90
18888;DHT22;9576;47.792;9.628;2024-01-30T01:39:25;-0.30;99.90
18888;DHT22;9576;47.792;9.628;2024-01-30T01:42:28;-0.40;99.90
18888;DHT22;9576;47.792;9.628;2024-01-30T01:45:30;-0.40;99.90
18888;DHT22;9576;47.792;9.628;2024-01-30T01:48:31;-0.40;99.90
18888;DHT22;9576;47.792;9.628;2024-01-30T01:51:34;-0.40;99.90
18888;DHT22;9576;47.792;9.628;2024-01-30T01:54:36;-0.50;99.90
18888;DHT22;9576;47.792;9.628;2024-01-30T01:57:40;-0.50;99.90
18888;DHT22;9576;47.792;9.628;2024-01-30T02:00:41;-0.50;99.90
18888;DHT22;9576;47.792;9.628;2024-01-30T02:03:43;-0.60;99.90
18888;DHT22;9576;47.792;9.628;2024-01-30T02:06:45;-0.70;99.90
18888;DHT22;9576;47.792;9.628;2024-01-30T02:09:47;-0.70;99.90
18888;DHT22;9576;47.792;9.628;2024-01-30T02:12:50;-0.70;99.90
18888;DHT22;9576;47.792;9.628;2024-01-30T02:15:52;-0.80;99.90
18888;DHT22;9576;47.792;9.628;2024-01-30T02:18:54;-0.70;99.90
18888;DHT22;9576;47.792;9.628;2024-01-30T02:21:57;-0.70;99.90
18888;DHT22;9576;47.792;9.628;2024-01-30T02:24:58;-0.50;99.90
18888;DHT22;9576;47.792;9.628;2024-01-30T02:28:00;-0.50;99.90
18888;DHT22;9576;47.792;9.628;2024-01-30T02:31:02;-0.30;99.90
18888;DHT22;9576;47.792;9.628;2024-01-30T02:34:04;-0.30;99.90
18888;DHT22;9576;47.792;9.628;2024-01-30T02:37:07;-0.30;99.90
18888;DHT22;9576;47.792;9.628;2024-01-30T02:40:08;-0.20;99.90
18888;DHT22;9576;47.792;9.628;2024-01-30T02:43:10;-0.20;99.90
18888;DHT22;9576;47.792;9.628;2024-01-30T02:46:12;-0.30;99.90
18888;DHT22;9576;47.792;9.628;2024-01-30T02:49:13;-0.20;99.90
18888;DHT22;9576;47.792;9.628;2024-01-30T02:52:16;-0.20;99.90
18888;DHT22;9576;47.792;9.628;2024-01-30T02:55:19;-0.20;99.90
18888;DHT22;9576;47.792;9.628;2024-01-30T02:58:21;-0.20;99.90
18888;DHT22;9576;47.792;9.628;2024-01-30T03:01:23;-0.30;99.90
18888;DHT22;9576;47.792;9.628;2024-01-30T03:04:25;-0.20;99.90
18888;DHT22;9576;47.792;9.628;2024-01-30T03:07:28;-0.20;99.90
18888;DHT22;9576;47.792;9.628;2024-01-30T03:10:30;-0.10;99.90
18888;DHT22;9576;47.792;9.628;2024-01-30T03:13:31;-0.10;99.90
18888;DHT22;9576;47.792;9.628;2024-01-30T03:16:33;-0.20;99.90
18888;DHT22;9576;47.792;9.628;2024-01-30T03:19:35;-0.40;99.90
18888;DHT22;9576;47.792;9.628;2024-01-30T03:22:38;-0.40;99.90
18888;DHT22;9576;47.792;9.628;2024-01-30T03:25:39;-0.60;99.90
18888;DHT22;9576;47.792;9.628;2024-01-30T03:28:41;-0.80;99.90
18888;DHT22;9576;47.792;9.628;2024-01-30T03:31:43;-0.90;99.90
18888;DHT22;9576;47.792;9.628;2024-01-30T03:34:44;-1.10;99.90
18888;DHT22;9576;47.792;9.628;2024-01-30T03:37:47;-1.20;99.90
18888;DHT22;9576;47.792;9.628;2024-01-30T03:40:49;-1.30;99.90
18888;DHT22;9576;47.792;9.628;2024-01-30T03:43:51;-1.40;99.90
18888;DHT22;9576;47.792;9.628;2024-01-30T03:46:53;-1.40;99.90
18888;DHT22;9576;47.792;9.628;2024-01-30T03:49:54;-1.30;99.90
18888;DHT22;9576;47.792;9.628;2024-01-30T03:52:57;-1.40;99.90
18888;DHT22;9576;47.792;9.628;2024-01-30T03:55:59;-1.40;99.90
18888;DHT22;9576;47.792;9.628;2024-01-30T03:59:01;-1.50;99.90
18888;DHT22;9576;47.792;9.628;2024-01-30T04:02:03;-1.40;99.90
18888;DHT22;9576;47.792;9.628;2024-01-30T04:05:05;-1.40;99.90
18888;DHT22;9576;47.792;9.628;2024-01-30T04:08:08;-1.40;99.90
18888;DHT22;9576;47.792;9.628;2024-01-30T04:11:10;-1.40;99.90
18888;DHT22;9576;47.792;9.628;2024-01-30T04:14:11;-1.40;99.90
18888;DHT22;9576;47.792;9.628;2024-01-30T04:17:13;-1.50;99.90
18888;DHT22;9576;47.792;9.628;2024-01-30T04:20:15;-1.40;99.90
18888;DHT22;9576;47.792;9.628;2024-01-30T04:23:18;-1.30;99.90
18888;DHT22;9576;47.792;9.628;2024-01-30T04:26:20;-1.20;99.90
18888;DHT22;9576;47.792;9.628;2024-01-30T04:29:21;-1.10;99.90
18888;DHT22;9576;47.792;9.628;2024-01-30T04:32:24;-0.90;99.90
18888;DHT22;9576;47.792;9.628;2024-01-30T04:35:25;-1.00;99.90
18888;DHT22;9576;47.792;9.628;2024-01-30T04:38:28;-1.00;99.90
18888;DHT22;9576;47.792;9.628;2024-01-30T04:41:30;-1.00;99.90
18888;DHT22;9576;47.792;9.628;2024-01-30T04:44:32;-1.00;99.90
18888;DHT22;9576;47.792;9.628;2024-01-30T04:47:34;-0.90;99.90
18888;DHT22;9576;47.792;9.628;2024-01-30T04:50:36;-1.00;99.90
18888;DHT22;9576;47.792;9.628;2024-01-30T04:53:39;-0.90;99.90
18888;DHT22;9576;47.792;9.628;2024-01-30T04:56:41;-1.00;99.90
18888;DHT22;9576;47.792;9.628;2024-01-30T04:59:42;-0.90;99.90
18888;DHT22;9576;47.792;9.628;2024-01-30T05:02:44;-0.80;99.90
18888;DHT22;9576;47.792;9.628;2024-01-30T05:05:46;-0.80;99.90
18888;DHT22;9576;47.792;9.628;2024-01-30T05:08:49;-0.90;99.90
18888;DHT22;9576;47.792;9.628;2024-01-30T05:11:51;-0.90;99.90
18888;DHT22;9576;47.792;9.628;2024-01-30T05:14:52;-0.80;99.90
18888;DHT22;9576;47.792;9.628;2024-01-30T05:17:54;-0.90;99.90
18888;DHT22;9576;47.792;9.628;2024-01-30T05:20:56;-0.80;99.90
18888;DHT22;9576;47.792;9.628;2024-01-30T05:23:59;-0.70;99.90
18888;DHT22;9576;47.792;9.628;2024-01-30T05:27:01;-0.80;99.90
18888;DHT22;9576;47.792;9.628;2024-01-30T05:30:03;-0.70;99.90
18888;DHT22;9576;47.792;9.628;2024-01-30T05:33:05;-0.80;99.90
18888;DHT22;9576;47.792;9.628;2024-01-30T05:36:07;-0.80;99.90
18888;DHT22;9576;47.792;9.628;2024-01-30T05:39:10;-0.70;99.90
18888;DHT22;9576;47.792;9.628;2024-01-30T05:42:11;-0.60;99.90
18888;DHT22;9576;47.792;9.628;2024-01-30T05:45:13;-0.50;99.90
18888;DHT22;9576;47.792;9.628;2024-01-30T05:48:15;-0.60;99.90
18888;DHT22;9576;47.792;9.628;2024-01-30T05:51:16;-0.60;99.90
18888;DHT22;9576;47.792;9.628;2024-01-30T05:54:19;-0.50;99.90
18888;DHT22;9576;47.792;9.628;2024-01-30T05:57:21;-0.60;99.90
18888;DHT22;9576;47.792;9.628;2024-01-30T06:00:23;-0.70;99.90
18888;DHT22;9576;47.792;9.628;2024-01-30T06:03:24;-0.80;99.90
18888;DHT22;9576;47.792;9.628;2024-01-30T06:06:26;-0.70;99.90
18888;DHT22;9576;47.792;9.628;2024-01-30T06:09:29;-0.60;99.90
18888;DHT22;9576;47.792;9.628;2024-01-30T06:12:31;-0.50;99.90
18888;DHT22;9576;47.792;9.628;2024-01-30T06:15:33;-0.50;99.90
18888;DHT22;9576;47.792;9.628;2024-01-30T06:18:34;-0.50;99.90
18888;DHT22;9576;47.792;9.628;2024-01-30T06:21:36;-0.40;99.90
18888;DHT22;9576;47.792;9.628;2024-01-30T06:24:40;-0.40;99.90
18888;DHT22;9576;47.792;9.628;2024-01-30T06:27:41;-0.40;99.90
18888;DHT22;9576;47.792;9.628;2024-01-30T06:30:43;-0.40;99.90
18888;DHT22;9576;47.792;9.628;2024-01-30T06:33:46;-0.40;99.90
18888;DHT22;9576;47.792;9.628;2024-01-30T06:36:48;-0.60;99.90
18888;DHT22;9576;47.792;9.628;2024-01-30T06:39:51;-0.80;99.90
18888;DHT22;9576;47.792;9.628;2024-01-30T06:42:53;-0.90;99.90
18888;DHT22;9576;47.792;9.628;2024-01-30T06:45:54;-0.90;99.90
18888;DHT22;9576;47.792;9.628;2024-01-30T06:48:56;-0.90;99.90
18888;DHT22;9576;47.792;9.628;2024-01-30T06:51:57;-0.80;99.90
18888;DHT22;9576;47.792;9.628;2024-01-30T06:55:01;-0.90;99.90
18888;DHT22;9576;47.792;9.628;2024-01-30T06:58:03;-0.90;99.90
18888;DHT22;9576;47.792;9.628;2024-01-30T07:01:06;-0.90;99.90
18888;DHT22;9576;47.792;9.628;2024-01-30T07:04:07;-0.80;99.90
18888;DHT22;9576;47.792;9.628;2024-01-30T07:07:09;-0.90;99.90
18888;DHT22;9576;47.792;9.628;2024-01-30T07:10:14;-1.20;99.90
18888;DHT22;9576;47.792;9.628;2024-01-30T07:13:16;-1.30;99.90
18888;DHT22;9576;47.792;9.628;2024-01-30T07:16:17;-1.40;99.90
18888;DHT22;9576;47.792;9.628;2024-01-30T07:19:19;-1.40;99.90
18888;DHT22;9576;47.792;9.628;2024-01-30T07:22:21;-1.30;99.90
18888;DHT22;9576;47.792;9.628;2024-01-30T07:25:24;-1.40;99.90
18888;DHT22;9576;47.792;9.628;2024-01-30T07:28:27;-1.20;99.90
18888;DHT22;9576;47.792;9.628;2024-01-30T07:31:28;-1.10;99.90
18888;DHT22;9576;47.792;9.628;2024-01-30T07:34:30;-1.00;99.90
18888;DHT22;9576;47.792;9.628;2024-01-30T07:37:32;-1.00;99.90
18888;DHT22;9576;47.792;9.628;2024-01-30T07:40:35;-0.90;99.90
18888;DHT22;9576;47.792;9.628;2024-01-30T07:43:37;-0.80;99.90
18888;DHT22;9576;47.792;9.628;2024-01-30T07:46:39;-0.60;99.90
18888;DHT22;9576;47.792;9.628;2024-01-30T07:49:41;-0.40;99.90
18888;DHT22;9576;47.792;9.628;2024-01-30T07:52:43;-0.30;99.90
18888;DHT22;9576;47.792;9.628;2024-01-30T07:55:46;-0.10;99.90
18888;DHT22;9576;47.792;9.628;2024-01-30T07:58:47;0.00;99.90
18888;DHT22;9576;47.792;9.628;2024-01-30T08:01:49;0.20;99.90
18888;DHT22;9576;47.792;9.628;2024-01-30T08:04:51;0.30;99.90
18888;DHT22;9576;47.792;9.628;2024-01-30T08:07:52;0.40;99.90
18888;DHT22;9576;47.792;9.628;2024-01-30T08:10:55;0.40;99.90
18888;DHT22;9576;47.792;9.628;2024-01-30T08:13:57;0.40;99.90
18888;DHT22;9576;47.792;9.628;2024-01-30T08:16:59;0.40;99.90
18888;DHT22;9576;47.792;9.628;2024-01-30T08:20:00;0.30;99.90
18888;DHT22;9576;47.792;9.628;2024-01-30T08:23:04;0.40;99.90
18888;DHT22;9576;47.792;9.628;2024-01-30T08:26:07;0.50;99.90
18888;DHT22;9576;47.792;9.628;2024-01-30T08:29:09;0.50;99.90
18888;DHT22;9576;47.792;9.628;2024-01-30T08:32:11;0.50;99.90
18888;DHT22;9576;47.792;9.628;2024-01-30T08:35:13;0.60;99.90
18888;DHT22;9576;47.792;9.628;2024-01-30T08:38:16;0.70;99.90
18888;DHT22;9576;47.792;9.628;2024-01-30T08:41:19;0.70;99.90
18888;DHT22;9576;47.792;9.628;2024-01-30T08:44:21;0.70;99.90
18888;DHT22;9576;47.792;9.628;2024-01-30T08:47:22;0.90;99.90
18888;DHT22;9576;47.792;9.628;2024-01-30T08:50:25;0.90;99.90
18888;DHT22;9576;47.792;9.628;2024-01-30T08:53:27;0.90;99.90
18888;DHT22;9576;47.792;9.628;2024-01-30T08:56:30;0.80;99.90
18888;DHT22;9576;47.792;9.628;2024-01-30T08:59:32;0.80;99.90
18888;DHT22;9576;47.792;9.628;2024-01-30T09:02:34;0.90;99.90
18888;DHT22;9576;47.792;9.628;2024-01-30T09:05:35;0.80;99.90
18888;DHT22;9576;47.792;9.628;2024-01-30T09:08:37;0.90;99.90
18888;DHT22;9576;47.792;9.628;2024-01-30T09:11:40;0.90;99.90
18888;DHT22;9576;47.792;9.628;2024-01-30T09:14:42;0.80;99.90
18888;DHT22;9576;47.792;9.628;2024-01-30T09:17:43;0.90;99.90
18888;DHT22;9576;47.792;9.628;2024-01-30T09:20:45;1.00;99.90
18888;DHT22;9576;47.792;9.628;2024-01-30T09:23:47;1.00;99.90
18888;DHT22;9576;47.792;9.628;2024-01-30T09:26:50;1.00;99.90
18888;DHT22;9576;47.792;9.628;2024-01-30T09:29:52;1.10;99.90
18888;DHT22;9576;47.792;9.628;2024-01-30T09:32:54;1.10;99.90
18888;DHT22;9576;47.792;9.628;2024-01-30T09:35:56;1.20;99.90
18888;DHT22;9576;47.792;9.628;2024-01-30T09:38:58;1.20;99.90
18888;DHT22;9576;47.792;9.628;2024-01-30T09:42:02;1.20;99.90
18888;DHT22;9576;47.792;9.628;2024-01-30T09:45:06;1.20;99.90
18888;DHT22;9576;47.792;9.628;2024-01-30T09:48:08;1.20;99.90
18888;DHT22;9576;47.792;9.628;2024-01-30T09:51:10;1.20;99.90
18888;DHT22;9576;47.792;9.628;2024-01-30T09:54:13;1.30;99.90
18888;DHT22;9576;47.792;9.628;2024-01-30T09:57:16;1.20;99.90
18888;DHT22;9576;47.792;9.628;2024-01-30T10:00:18;1.30;99.90
18888;DHT22;9576;47.792;9.628;2024-01-30T10:03:20;1.50;99.90
18888;DHT22;9576;47.792;9.628;2024-01-30T10:06:22;1.40;99.90
18888;DHT22;9576;47.792;9.628;2024-01-30T10:09:26;1.60;99.90
18888;DHT22;9576;47.792;9.628;2024-01-30T10:12:29;1.60;99.90
18888;DHT22;9576;47.792;9.628;2024-01-30T10:15:31;1.80;99.90
18888;DHT22;9576;47.792;9.628;2024-01-30T10:18:32;2.00;99.90
18888;DHT22;9576;47.792;9.628;2024-01-30T10:21:34;2.20;99.90
18888;DHT22;9576;47.792;9.628;2024-01-30T10:24:36;2.10;99.90
18888;DHT22;9576;47.792;9.628;2024-01-30T10:27:40;2.00;99.90
18888;DHT22;9576;47.792;9.628;2024-01-30T10:30:42;2.10;99.90
18888;DHT22;9576;47.792;9.628;2024-01-30T10:33:43;2.30;99.90
18888;DHT22;9576;47.792;9.628;2024-01-30T10:36:46;2.40;99.90
18888;DHT22;9576;47.792;9.628;2024-01-30T10:39:49;2.60;99.90
18888;DHT22;9576;47.792;9.628;2024-01-30T10:42:54;2.70;99.90
18888;DHT22;9576;47.792;9.628;2024-01-30T10:45:56;2.60;99.90
18888;DHT22;9576;47.792;9.628;2024-01-30T10:48:59;2.80;99.90
18888;DHT22;9576;47.792;9.628;2024-01-30T10:52:00;3.10;99.90
18888;DHT22;9576;47.792;9.628;2024-01-30T10:55:03;3.40;99.90
18888;DHT22;9576;47.792;9.628;2024-01-30T10:58:07;3.50;99.90
18888;DHT22;9576;47.792;9.628;2024-01-30T11:01:10;3.60;99.90
18888;DHT22;9576;47.792;9.628;2024-01-30T11:04:13;3.90;99.90
18888;DHT22;9576;47.792;9.628;2024-01-30T11:07:15;4.10;99.90
18888;DHT22;9576;47.792;9.628;2024-01-30T11:10:17;4.10;99.90
18888;DHT22;9576;47.792;9.628;2024-01-30T11:13:20;4.30;99.90
18888;DHT22;9576;47.792;9.628;2024-01-30T11:16:22;4.40;99.90
18888;DHT22;9576;47.792;9.628;2024-01-30T11:19:23;4.10;99.90
18888;DHT22;9576;47.792;9.628;2024-01-30T11:22:26;4.10;99.90
18888;DHT22;9576;47.792;9.628;2024-01-30T11:25:28;4.20;99.90
18888;DHT22;9576;47.792;9.628;2024-01-30T11:28:34;4.20;99.90
18888;DHT22;9576;47.792;9.628;2024-01-30T11:31:36;4.40;99.90
18888;DHT22;9576;47.792;9.628;2024-01-30T11:34:39;4.50;99.90
18888;DHT22;9576;47.792;9.628;2024-01-30T11:37:42;4.50;99.90
18888;DHT22;9576;47.792;9.628;2024-01-30T11:40:44;4.70;99.90
18888;DHT22;9576;47.792;9.628;2024-01-30T11:43:52;5.00;99.90
18888;DHT22;9576;47.792;9.628;2024-01-30T11:46:54;5.10;99.90
18888;DHT22;9576;47.792;9.628;2024-01-30T11:49:56;5.10;99.90
18888;DHT22;9576;47.792;9.628;2024-01-30T11:52:58;5.30;99.90
18888;DHT22;9576;47.792;9.628;2024-01-30T11:56:00;5.40;99.90
18888;DHT22;9576;47.792;9.628;2024-01-30T11:59:03;5.50;99.90
18888;DHT22;9576;47.792;9.628;2024-01-30T12:02:05;5.60;99.90
18888;DHT22;9576;47.792;9.628;2024-01-30T12:05:07;5.70;99.90
18888;DHT22;9576;47.792;9.628;2024-01-30T12:08:13;5.90;99.90
18888;DHT22;9576;47.792;9.628;2024-01-30T12:11:15;6.10;99.90
18888;DHT22;9576;47.792;9.628;2024-01-30T12:14:18;6.20;99.90
18888;DHT22;9576;47.792;9.628;2024-01-30T12:17:23;6.20;99.90
18888;DHT22;9576;47.792;9.628;2024-01-30T12:20:25;6.10;99.90
18888;DHT22;9576;47.792;9.628;2024-01-30T12:23:26;6.20;99.90
18888;DHT22;9576;47.792;9.628;2024-01-30T12:26:28;6.30;99.90
18888;DHT22;9576;47.792;9.628;2024-01-30T12:29:33;6.40;99.90
18888;DHT22;9576;47.792;9.628;2024-01-30T12:32:34;6.60;99.90
18888;DHT22;9576;47.792;9.628;2024-01-30T12:35:36;6.50;99.90
18888;DHT22;9576;47.792;9.628;2024-01-30T12:38:38;6.40;99.90
18888;DHT22;9576;47.792;9.628;2024-01-30T12:41:40;6.50;99.90
18888;DHT22;9576;47.792;9.628;2024-01-30T12:44:43;6.80;99.90
18888;DHT22;9576;47.792;9.628;2024-01-30T12:47:45;7.10;99.90
18888;DHT22;9576;47.792;9.628;2024-01-30T12:50:47;7.30;99.90
18888;DHT22;9576;47.792;9.628;2024-01-30T12:53:48;7.50;99.90
18888;DHT22;9576;47.792;9.628;2024-01-30T12:56:50;7.60;99.90
18888;DHT22;9576;47.792;9.628;2024-01-30T12:59:53;7.80;99.90
18888;DHT22;9576;47.792;9.628;2024-01-30T13:02:55;7.90;99.90
18888;DHT22;9576;47.792;9.628;2024-01-30T13:05:57;7.90;99.90
18888;DHT22;9576;47.792;9.628;2024-01-30T13:08:58;8.00;99.90
18888;DHT22;9576;47.792;9.628;2024-01-30T13:12:00;7.90;99.90
18888;DHT22;9576;47.792;9.628;2024-01-30T13:15:04;7.90;99.90
18888;DHT22;9576;47.792;9.628;2024-01-30T13:18:06;8.00;99.90
18888;DHT22;9576;47.792;9.628;2024-01-30T13:21:07;8.20;99.90
18888;DHT22;9576;47.792;9.628;2024-01-30T13:24:09;8.60;99.90
18888;DHT22;9576;47.792;9.628;2024-01-30T13:27:11;9.00;99.90
18888;DHT22;9576;47.792;9.628;2024-01-30T13:30:14;9.40;99.90
18888;DHT22;9576;47.792;9.628;2024-01-30T13:33:16;9.50;99.90
18888;DHT22;9576;47.792;9.628;2024-01-30T13:36:17;9.50;99.90
18888;DHT22;9576;47.792;9.628;2024-01-30T13:39:19;9.70;99.90
18888;DHT22;9576;47.792;9.628;2024-01-30T13:42:21;10.00;99.90
18888;DHT22;9576;47.792;9.628;2024-01-30T13:45:24;10.30;99.90
18888;DHT22;9576;47.792;9.628;2024-01-30T13:48:26;10.60;99.90
18888;DHT22;9576;47.792;9.628;2024-01-30T13:51:28;10.60;99.90
18888;DHT22;9576;47.792;9.628;2024-01-30T13:54:29;10.50;99.90
18888;DHT22;9576;47.792;9.628;2024-01-30T13:57:31;10.40;99.90
18888;DHT22;9576;47.792;9.628;2024-01-30T14:00:37;10.20;99.90
18888;DHT22;9576;47.792;9.628;2024-01-30T14:03:39;9.90;99.90
18888;DHT22;9576;47.792;9.628;2024-01-30T14:06:40;9.60;99.90
18888;DHT22;9576;47.792;9.628;2024-01-30T14:09:42;9.40;99.90
18888;DHT22;9576;47.792;9.628;2024-01-30T14:12:44;9.60;99.90
18888;DHT22;9576;47.792;9.628;2024-01-30T14:15:48;9.90;99.90
18888;DHT22;9576;47.792;9.628;2024-01-30T14:18:50;10.30;99.90
18888;DHT22;9576;47.792;9.628;2024-01-30T14:21:52;10.50;99.90
18888;DHT22;9576;47.792;9.628;2024-01-30T14:24:54;10.40;99.90
18888;DHT22;9576;47.792;9.628;2024-01-30T14:27:56;10.30;99.90
18888;DHT22;9576;47.792;9.628;2024-01-30T14:30:59;10.40;99.90
18888;DHT22;9576;47.792;9.628;2024-01-30T14:34:01;10.80;99.90
18888;DHT22;9576;47.792;9.628;2024-01-30T14:37:03;11.40;99.90
18888;DHT22;9576;47.792;9.628;2024-01-30T14:40:05;11.00;99.90
18888;DHT22;9576;47.792;9.628;2024-01-30T14:43:08;10.50;99.90
18888;DHT22;9576;47.792;9.628;2024-01-30T14:46:11;10.00;99.90
18888;DHT22;9576;47.792;9.628;2024-01-30T14:49:13;9.90;99.90
18888;DHT22;9576;47.792;9.628;2024-01-30T14:52:15;10.00;99.90
18888;DHT22;9576;47.792;9.628;2024-01-30T14:55:17;9.70;99.90
18888;DHT22;9576;47.792;9.628;2024-01-30T14:58:19;9.70;99.90
18888;DHT22;9576;47.792;9.628;2024-01-30T15:01:22;9.40;99.90
18888;DHT22;9576;47.792;9.628;2024-01-30T15:04:24;9.10;99.90
18888;DHT22;9576;47.792;9.628;2024-01-30T15:07:26;9.00;99.90
18888;DHT22;9576;47.792;9.628;2024-01-30T15:10:29;8.70;99.90
18888;DHT22;9576;47.792;9.628;2024-01-30T15:13:31;8.90;99.90
18888;DHT22;9576;47.792;9.628;2024-01-30T15:16:34;8.80;99.90
18888;DHT22;9576;47.792;9.628;2024-01-30T15:19:36;8.50;99.90
18888;DHT22;9576;47.792;9.628;2024-01-30T15:22:37;8.20;99.90
18888;DHT22;9576;47.792;9.628;2024-01-30T15:25:40;7.80;99.90
18888;DHT22;9576;47.792;9.628;2024-01-30T15:28:42;7.40;99.90
18888;DHT22;9576;47.792;9.628;2024-01-30T15:31:45;7.20;99.90
18888;DHT22;9576;47.792;9.628;2024-01-30T15:34:47;6.90;99.90
18888;DHT22;9576;47.792;9.628;2024-01-30T15:37:48;6.70;99.90
18888;DHT22;9576;47.792;9.628;2024-01-30T15:40:50;6.50;99.90
18888;DHT22;9576;47.792;9.628;2024-01-30T15:43:52;6.30;99.90
18888;DHT22;9576;47.792;9.628;2024-01-30T15:46:55;6.00;99.90
18888;DHT22;9576;47.792;9.628;2024-01-30T15:49:56;5.80;99.90
18888;DHT22;9576;47.792;9.628;2024-01-30T15:52:58;5.70;99.90
18888;DHT22;9576;47.792;9.628;2024-01-30T15:56:00;5.70;99.90
18888;DHT22;9576;47.792;9.628;2024-01-30T15:59:01;5.60;99.90
18888;DHT22;9576;47.792;9.628;2024-01-30T16:02:05;5.40;99.90
18888;DHT22;9576;47.792;9.628;2024-01-30T16:05:06;5.30;99.90
18888;DHT22;9576;47.792;9.628;2024-01-30T16:08:08;5.30;99.90
18888;DHT22;9576;47.792;9.628;2024-01-30T16:11:10;5.20;99.90
18888;DHT22;9576;47.792;9.628;2024-01-30T16:14:12;5.20;99.90
18888;DHT22;9576;47.792;9.628;2024-01-30T16:17:15;5.10;99.90
18888;DHT22;9576;47.792;9.628;2024-01-30T16:20:17;5.00;99.90
18888;DHT22;9576;47.792;9.628;2024-01-30T16:23:19;4.90;99.90
18888;DHT22;9576;47.792;9.628;2024-01-30T16:26:21;4.80;99.90
18888;DHT22;9576;47.792;9.628;2024-01-30T16:29:23;4.60;99.90
18888;DHT22;9576;47.792;9.628;2024-01-30T16:32:26;4.60;99.90
18888;DHT22;9576;47.792;9.628;2024-01-30T16:35:31;4.60;99.90
18888;DHT22;9576;47.792;9.628;2024-01-30T16:38:35;4.60;99.90
18888;DHT22;9576;47.792;9.628;2024-01-30T16:41:37;4.60;99.90
18888;DHT22;9576;47.792;9.628;2024-01-30T16:44:38;4.60;99.90
18888;DHT22;9576;47.792;9.628;2024-01-30T16:47:41;4.60;99.90
18888;DHT22;9576;47.792;9.628;2024-01-30T16:50:43;4.40;99.90
18888;DHT22;9576;47.792;9.628;2024-01-30T16:53:45;4.40;99.90
18888;DHT22;9576;47.792;9.628;2024-01-30T16:56:48;4.40;99.90
18888;DHT22;9576;47.792;9.628;2024-01-30T16:59:49;4.40;99.90
18888;DHT22;9576;47.792;9.628;2024-01-30T17:02:52;4.50;99.90
18888;DHT22;9576;47.792;9.628;2024-01-30T17:05:54;4.30;99.90
18888;DHT22;9576;47.792;9.628;2024-01-30T17:08:58;4.20;99.90
18888;DHT22;9576;47.792;9.628;2024-01-30T17:12:00;4.10;99.90
18888;DHT22;9576;47.792;9.628;2024-01-30T17:15:03;4.10;99.90
18888;DHT22;9576;47.792;9.628;2024-01-30T17:18:07;4.20;99.90
18888;DHT22;9576;47.792;9.628;2024-01-30T17:21:09;4.20;99.90
18888;DHT22;9576;47.792;9.628;2024-01-30T17:24:16;4.20;99.90
18888;DHT22;9576;47.792;9.628;2024-01-30T17:27:18;4.10;99.90
18888;DHT22;9576;47.792;9.628;2024-01-30T17:30:20;4.00;99.90
18888;DHT22;9576;47.792;9.628;2024-01-30T17:33:23;4.00;99.90
18888;DHT22;9576;47.792;9.628;2024-01-30T17:36:25;4.00;99.90
18888;DHT22;9576;47.792;9.628;2024-01-30T17:39:28;4.00;99.90
18888;DHT22;9576;47.792;9.628;2024-01-30T17:42:30;4.10;99.90
18888;DHT22;9576;47.792;9.628;2024-01-30T17:45:32;4.00;99.90
18888;DHT22;9576;47.792;9.628;2024-01-30T17:48:35;4.10;99.90
18888;DHT22;9576;47.792;9.628;2024-01-30T17:51:37;4.00;99.90
18888;DHT22;9576;47.792;9.628;2024-01-30T17:54:39;4.10;99.90
18888;DHT22;9576;47.792;9.628;2024-01-30T17:57:41;4.10;99.90
18888;DHT22;9576;47.792;9.628;2024-01-30T18:00:43;4.10;99.90
18888;DHT22;9576;47.792;9.628;2024-01-30T18:03:46;4.10;99.90
18888;DHT22;9576;47.792;9.628;2024-01-30T18:06:51;4.10;99.90
18888;DHT22;9576;47.792;9.628;2024-01-30T18:09:53;4.10;99.90
18888;DHT22;9576;47.792;9.628;2024-01-30T18:12:55;4.10;99.90
18888;DHT22;9576;47.792;9.628;2024-01-30T18:15:59;4.10;99.90
18888;DHT22;9576;47.792;9.628;2024-01-30T18:19:02;4.00;99.90
18888;DHT22;9576;47.792;9.628;2024-01-30T18:22:04;3.90;99.90
18888;DHT22;9576;47.792;9.628;2024-01-30T18:25:06;3.90;99.90
18888;DHT22;9576;47.792;9.628;2024-01-30T18:28:08;3.90;99.90
18888;DHT22;9576;47.792;9.628;2024-01-30T18:31:10;3.90;99.90
18888;DHT22;9576;47.792;9.628;2024-01-30T18:34:14;3.90;99.90
18888;DHT22;9576;47.792;9.628;2024-01-30T18:37:15;4.00;99.90
18888;DHT22;9576;47.792;9.628;2024-01-30T18:40:17;4.00;99.90
18888;DHT22;9576;47.792;9.628;2024-01-30T18:43:19;3.90;99.90
18888;DHT22;9576;47.792;9.628;2024-01-30T18:46:20;3.90;99.90
18888;DHT22;9576;47.792;9.628;2024-01-30T18:49:25;3.90;99.90
18888;DHT22;9576;47.792;9.628;2024-01-30T18:52:26;3.90;99.90
18888;DHT22;9576;47.792;9.628;2024-01-30T18:55:28;3.90;99.90
18888;DHT22;9576;47.792;9.628;2024-01-30T18:58:30;3.80;99.90
18888;DHT22;9576;47.792;9.628;2024-01-30T19:01:31;3.60;99.90
18888;DHT22;9576;47.792;9.628;2024-01-30T19:04:35;3.60;99.90
18888;DHT22;9576;47.792;9.628;2024-01-30T19:07:37;3.60;99.90
18888;DHT22;9576;47.792;9.628;2024-01-30T19:10:38;3.60;99.90
18888;DHT22;9576;47.792;9.628;2024-01-30T19:13:40;3.60;99.90
18888;DHT22;9576;47.792;9.628;2024-01-30T19:16:42;3.60;99.90
18888;DHT22;9576;47.792;9.628;2024-01-30T19:19:45;3.60;99.90
18888;DHT22;9576;47.792;9.628;2024-01-30T19:22:47;3.60;99.90
18888;DHT22;9576;47.792;9.628;2024-01-30T19:25:49;3.60;99.90
18888;DHT22;9576;47.792;9.628;2024-01-30T19:28:50;3.60;99.90
18888;DHT22;9576;47.792;9.628;2024-01-30T19:31:52;3.70;99.90
18888;DHT22;9576;47.792;9.628;2024-01-30T19:34:55;3.70;99.90
18888;DHT22;9576;47.792;9.628;2024-01-30T19:37:57;3.60;99.90
18888;DHT22;9576;47.792;9.628;2024-01-30T19:40:59;3.60;99.90